createdAt,value
2017-10-23T00:00:11.889Z,100117
2017-10-23T00:02:40.142Z,100121
2017-10-23T00:05:08.972Z,100113
2017-10-23T00:07:37.221Z,100113
2017-10-23T00:10:05.495Z,100119
2017-10-23T00:12:33.816Z,100110
2017-10-23T00:15:02.075Z,100104
2017-10-23T00:17:30.334Z,100115
2017-10-23T00:19:58.705Z,100118
2017-10-23T00:22:26.998Z,100115
2017-10-23T00:24:55.326Z,100122
2017-10-23T00:27:24.400Z,100123
2017-10-23T00:29:52.714Z,100115
2017-10-23T00:32:20.977Z,100117
2017-10-23T00:34:50.044Z,100108
2017-10-23T00:37:18.297Z,100109
2017-10-23T00:39:46.536Z,100110
2017-10-23T00:42:14.837Z,100104
2017-10-23T00:44:43.092Z,100112
2017-10-23T00:47:11.339Z,100109
2017-10-23T00:49:39.652Z,100102
2017-10-23T00:52:07.896Z,100102
2017-10-23T00:54:36.910Z,100106
2017-10-23T00:57:05.188Z,100112
2017-10-23T00:59:33.448Z,100105
2017-10-23T01:02:01.717Z,100104
2017-10-23T01:04:30.763Z,100101
2017-10-23T01:06:59.019Z,100099
2017-10-23T01:09:27.307Z,100101
2017-10-23T01:11:55.605Z,100094
2017-10-23T01:14:23.839Z,100095
2017-10-23T01:16:52.086Z,100081
2017-10-23T01:19:20.381Z,100087
2017-10-23T01:21:48.655Z,100076
2017-10-23T01:24:16.938Z,100085
2017-10-23T01:26:45.254Z,100084
2017-10-23T01:29:13.495Z,100077
2017-10-23T01:31:41.762Z,100085
2017-10-23T01:34:10.065Z,100084
2017-10-23T01:36:38.319Z,100089
2017-10-23T01:39:06.565Z,100091
2017-10-23T01:41:35.627Z,100081
2017-10-23T01:44:03.884Z,100094
2017-10-23T01:46:32.129Z,100096
2017-10-23T01:49:00.672Z,100103
2017-10-23T01:51:28.946Z,100104
2017-10-23T01:53:57.236Z,100107
2017-10-23T01:56:25.546Z,100107
2017-10-23T01:58:53.821Z,100097
2017-10-23T02:01:22.062Z,100100
2017-10-23T02:03:51.113Z,100100
2017-10-23T02:06:19.351Z,100104
2017-10-23T02:08:47.600Z,100102
2017-10-23T02:11:16.699Z,100101
2017-10-23T02:13:45.014Z,100102
2017-10-23T02:16:13.276Z,100098
2017-10-23T02:18:41.556Z,100097
2017-10-23T02:21:09.838Z,100097
2017-10-23T02:23:38.149Z,100096
2017-10-23T02:26:06.459Z,100098
2017-10-23T02:28:35.477Z,100096
2017-10-23T02:31:03.720Z,100101
2017-10-23T02:33:32.028Z,100105
2017-10-23T02:36:00.257Z,100101
2017-10-23T02:38:28.533Z,100103
2017-10-23T02:40:56.821Z,100107
2017-10-23T02:43:25.073Z,100105
2017-10-23T02:45:53.311Z,100099
2017-10-23T02:48:21.623Z,100099
2017-10-23T02:50:49.870Z,100107
2017-10-23T02:53:18.127Z,100100
2017-10-23T02:55:46.499Z,100112
2017-10-23T02:58:14.773Z,100111
2017-10-23T03:00:43.010Z,100113
2017-10-23T03:03:11.314Z,100119
2017-10-23T03:05:40.319Z,100123
2017-10-23T03:08:08.571Z,100121
2017-10-23T03:10:37.644Z,100121
2017-10-23T03:13:05.882Z,100122
2017-10-23T03:15:34.121Z,100120
2017-10-23T03:18:02.414Z,100112
2017-10-23T03:20:30.677Z,100118
2017-10-23T03:22:59.684Z,100112
2017-10-23T03:25:28.038Z,100107
2017-10-23T03:27:57.081Z,100104
2017-10-23T03:30:25.354Z,100097
2017-10-23T03:32:53.678Z,100110
2017-10-23T03:35:21.934Z,100105
2017-10-23T03:37:50.184Z,100106
2017-10-23T03:40:18.466Z,100103
2017-10-23T03:42:46.707Z,100094
2017-10-23T03:45:14.968Z,100098
2017-10-23T03:47:44.092Z,100099
2017-10-23T03:50:12.327Z,100095
2017-10-23T03:52:40.606Z,100106
2017-10-23T03:55:08.888Z,100102
2017-10-23T03:57:37.139Z,100094
2017-10-23T04:00:05.430Z,100108
2017-10-23T04:02:33.745Z,100099
2017-10-23T04:05:01.979Z,100105
2017-10-23T04:07:30.250Z,100106
2017-10-23T04:09:58.538Z,100107
2017-10-23T04:12:27.530Z,100108
2017-10-23T04:14:56.551Z,100115
2017-10-23T04:17:24.851Z,100112
2017-10-23T04:19:53.095Z,100111
2017-10-23T04:22:21.342Z,100117
2017-10-23T04:24:49.616Z,100110
2017-10-23T04:27:17.849Z,100122
2017-10-23T04:29:46.095Z,100118
2017-10-23T04:32:14.384Z,100120
2017-10-23T04:34:42.624Z,100126
2017-10-23T04:37:10.875Z,100128
2017-10-23T04:39:39.155Z,100124
2017-10-23T04:42:07.389Z,100122
2017-10-23T04:44:35.638Z,100122
2017-10-23T04:47:03.965Z,100124
2017-10-23T04:49:32.197Z,100123
2017-10-23T04:52:01.199Z,100127
2017-10-23T04:54:29.511Z,100121
2017-10-23T04:56:57.774Z,100118
2017-10-23T04:59:26.116Z,100119
2017-10-23T05:01:54.383Z,100114
2017-10-23T05:04:23.390Z,100126
2017-10-23T05:06:51.706Z,100122
2017-10-23T05:09:19.994Z,100127
2017-10-23T05:11:48.267Z,100124
2017-10-23T05:14:16.499Z,100120
2017-10-23T05:16:44.834Z,100122
2017-10-23T05:19:13.090Z,100123
2017-10-23T05:21:41.393Z,100126
2017-10-23T05:24:09.676Z,100130
2017-10-23T05:26:37.962Z,100142
2017-10-23T05:29:06.404Z,100134
2017-10-23T05:31:34.736Z,100136
2017-10-23T05:34:02.968Z,100133
2017-10-23T05:36:31.532Z,100133
2017-10-23T05:38:59.893Z,100136
2017-10-23T05:41:28.211Z,100135
2017-10-23T05:43:56.461Z,100143
2017-10-23T05:46:24.808Z,100140
2017-10-23T05:48:53.093Z,100154
2017-10-23T05:51:21.365Z,100146
2017-10-23T05:53:49.661Z,100145
2017-10-23T05:56:17.910Z,100157
2017-10-23T05:58:46.275Z,100155
2017-10-23T06:01:14.562Z,100150
2017-10-23T06:03:42.816Z,100148
2017-10-23T06:06:11.854Z,100147
2017-10-23T06:08:40.148Z,100153
2017-10-23T06:11:08.393Z,100155
2017-10-23T06:13:36.627Z,100157
2017-10-23T06:16:05.689Z,100157
2017-10-23T06:18:33.933Z,100169
2017-10-23T06:21:02.184Z,100162
2017-10-23T06:23:31.260Z,100168
2017-10-23T06:25:59.523Z,100164
2017-10-23T06:28:27.805Z,100170
2017-10-23T06:30:56.140Z,100171
2017-10-23T06:33:24.383Z,100165
2017-10-23T06:35:52.644Z,100172
2017-10-23T06:38:21.702Z,100171
2017-10-23T06:40:50.014Z,100177
2017-10-23T06:43:19.010Z,100169
2017-10-23T06:45:47.346Z,100179
2017-10-23T06:48:15.604Z,100173
2017-10-23T06:50:43.874Z,100178
2017-10-23T06:53:12.173Z,100175
2017-10-23T06:55:40.401Z,100181
2017-10-23T06:58:08.678Z,100183
2017-10-23T07:00:36.958Z,100182
2017-10-23T07:03:05.201Z,100182
2017-10-23T07:05:33.494Z,100175
2017-10-23T07:08:02.628Z,100173
2017-10-23T07:10:30.879Z,100180
2017-10-23T07:12:59.134Z,100180
2017-10-23T07:15:28.192Z,100176
2017-10-23T07:17:56.470Z,100185
2017-10-23T07:20:24.740Z,100183
2017-10-23T07:22:53.057Z,100184
2017-10-23T07:25:22.102Z,100188
2017-10-23T07:27:50.341Z,100184
2017-10-23T07:30:18.633Z,100194
2017-10-23T07:32:46.992Z,100184
2017-10-23T07:35:16.036Z,100193
2017-10-23T07:37:44.387Z,100201
2017-10-23T07:40:12.660Z,100196
2017-10-23T07:42:40.926Z,100195
2017-10-23T07:45:09.217Z,100198
2017-10-23T07:47:37.468Z,100192
2017-10-23T07:50:06.467Z,100200
2017-10-23T07:52:34.746Z,100199
2017-10-23T07:55:03.020Z,100201
2017-10-23T07:57:31.257Z,100205
2017-10-23T07:59:59.542Z,100204
2017-10-23T08:02:28.565Z,100208
2017-10-23T08:04:56.853Z,100202
2017-10-23T08:07:25.167Z,100210
2017-10-23T08:09:53.423Z,100205
2017-10-23T08:12:21.682Z,100204
2017-10-23T08:14:49.965Z,100209
2017-10-23T08:17:18.265Z,100208
2017-10-23T08:19:46.939Z,100207
2017-10-23T08:22:15.251Z,100202
2017-10-23T08:24:43.502Z,100207
2017-10-23T08:27:11.819Z,100205
2017-10-23T08:29:40.173Z,100212
2017-10-23T08:32:08.428Z,100202
2017-10-23T08:34:36.793Z,100209
2017-10-23T08:37:05.075Z,100213
2017-10-23T08:39:33.375Z,100207
2017-10-23T08:42:01.635Z,100212
2017-10-23T08:44:29.927Z,100209
2017-10-23T08:46:58.209Z,100221
2017-10-23T08:49:26.438Z,100211
2017-10-23T08:51:54.729Z,100216
2017-10-23T08:54:22.967Z,100221
2017-10-23T08:56:51.306Z,100224
2017-10-23T08:59:19.631Z,100220
2017-10-23T09:01:47.886Z,100225
2017-10-23T09:04:16.888Z,100218
2017-10-23T09:06:45.231Z,100220
2017-10-23T09:09:13.525Z,100220
2017-10-23T09:11:42.541Z,100216
2017-10-23T09:14:10.836Z,100209
2017-10-23T09:16:39.091Z,100220
2017-10-23T09:19:07.342Z,100217
2017-10-23T09:21:35.729Z,100220
2017-10-23T09:24:03.966Z,100220
2017-10-23T09:26:32.216Z,100225
2017-10-23T09:29:00.520Z,100226
2017-10-23T09:31:28.824Z,100216
2017-10-23T09:33:57.853Z,100225
2017-10-23T09:36:26.713Z,100223
2017-10-23T09:38:56.333Z,100223
2017-10-23T09:41:24.590Z,100224
2017-10-23T09:43:52.952Z,100234
2017-10-23T09:46:21.209Z,100223
2017-10-23T09:48:49.452Z,100228
2017-10-23T09:51:17.744Z,100219
2017-10-23T09:53:46.005Z,100224
2017-10-23T09:56:14.263Z,100222
2017-10-23T09:58:42.529Z,100217
2017-10-23T10:01:10.883Z,100229
2017-10-23T10:03:39.128Z,100225
2017-10-23T10:06:07.451Z,100220
2017-10-23T10:08:35.716Z,100223
2017-10-23T10:11:05.103Z,100225
2017-10-23T10:13:33.430Z,100222
2017-10-23T10:16:02.085Z,100222
2017-10-23T10:18:30.409Z,100229
2017-10-23T10:21:00.807Z,100224
2017-10-23T10:23:29.055Z,100221
2017-10-23T10:26:00.288Z,100227
2017-10-23T10:28:29.840Z,100219
2017-10-23T10:30:58.219Z,100227
2017-10-23T10:33:26.463Z,100229
2017-10-23T10:35:55.532Z,100220
2017-10-23T10:38:23.852Z,100223
2017-10-23T10:40:52.108Z,100225
2017-10-23T10:43:21.176Z,100226
2017-10-23T10:45:49.451Z,100232
2017-10-23T10:48:17.718Z,100225
2017-10-23T10:50:46.056Z,100218
2017-10-23T10:53:14.305Z,100225
2017-10-23T10:55:43.350Z,100230
2017-10-23T10:58:11.650Z,100223
2017-10-23T11:00:39.913Z,100232
2017-10-23T11:03:08.185Z,100241
2017-10-23T11:05:36.467Z,100233
2017-10-23T11:08:04.704Z,100240
2017-10-23T11:10:32.999Z,100235
2017-10-23T11:13:01.290Z,100228
2017-10-23T11:15:29.602Z,100230
2017-10-23T11:17:57.882Z,100237
2017-10-23T11:20:26.939Z,100245
2017-10-23T11:22:55.193Z,100248
2017-10-23T11:25:23.442Z,100242
2017-10-23T11:27:52.506Z,100237
2017-10-23T11:30:20.815Z,100248
2017-10-23T11:32:49.078Z,100240
2017-10-23T11:35:18.156Z,100254
2017-10-23T11:37:46.436Z,100245
2017-10-23T11:40:14.764Z,100245
2017-10-23T11:42:43.108Z,100252
2017-10-23T11:45:12.182Z,100250
2017-10-23T11:47:41.263Z,100256
2017-10-23T11:50:09.579Z,100252
2017-10-23T11:52:37.933Z,100241
2017-10-23T11:55:06.224Z,100251
2017-10-23T11:57:34.583Z,100254
2017-10-23T12:00:02.863Z,100261
2017-10-23T12:02:31.138Z,100271
2017-10-23T12:04:59.530Z,100256
2017-10-23T12:07:27.909Z,100255
2017-10-23T12:09:56.909Z,100257
2017-10-23T12:12:25.210Z,100261
2017-10-23T12:14:53.458Z,100262
2017-10-23T12:17:22.487Z,100261
2017-10-23T12:19:50.775Z,100254
2017-10-23T12:22:19.047Z,100266
2017-10-23T12:24:48.756Z,100271
2017-10-23T12:27:17.186Z,100276
2017-10-23T12:29:46.237Z,100274
2017-10-23T12:32:14.522Z,100266
2017-10-23T12:34:42.815Z,100266
2017-10-23T12:37:11.115Z,100271
2017-10-23T12:39:40.144Z,100271
2017-10-23T12:42:08.465Z,100279
2017-10-23T12:44:36.752Z,100274
2017-10-23T12:47:05.822Z,100271
2017-10-23T12:49:34.160Z,100279
2017-10-23T12:52:02.412Z,100277
2017-10-23T12:54:31.415Z,100278
2017-10-23T12:56:59.716Z,100288
2017-10-23T12:59:27.975Z,100281
2017-10-23T13:01:56.240Z,100288
2017-10-23T13:04:24.996Z,100302
2017-10-23T13:06:53.257Z,100298
2017-10-23T13:09:21.518Z,100305
2017-10-23T13:11:49.807Z,100295
2017-10-23T13:14:18.863Z,100302
2017-10-23T13:16:47.127Z,100296
2017-10-23T13:19:15.459Z,100308
2017-10-23T13:21:43.700Z,100300
2017-10-23T13:24:11.967Z,100306
2017-10-23T13:26:40.275Z,100304
2017-10-23T13:29:08.550Z,100315
2017-10-23T13:31:36.855Z,100315
2017-10-23T13:34:05.929Z,100315
2017-10-23T13:36:34.191Z,100314
2017-10-23T13:39:02.474Z,100315
2017-10-23T13:41:30.829Z,100316
2017-10-23T13:44:00.264Z,100326
2017-10-23T13:46:28.528Z,100322
2017-10-23T13:48:56.866Z,100316
2017-10-23T13:51:25.175Z,100324
2017-10-23T13:53:53.427Z,100324
2017-10-23T13:56:21.711Z,100340
2017-10-23T13:58:49.979Z,100334
2017-10-23T14:01:18.264Z,100339
2017-10-23T14:03:47.286Z,100338
2017-10-23T14:06:15.617Z,100343
2017-10-23T14:08:43.939Z,100345
2017-10-23T14:11:12.274Z,100336
2017-10-23T14:13:40.559Z,100346
2017-10-23T14:16:08.827Z,100352
2017-10-23T14:18:37.319Z,100361
2017-10-23T14:21:05.772Z,100353
2017-10-23T14:23:34.093Z,100356
2017-10-23T14:26:02.524Z,100360
2017-10-23T14:28:30.842Z,100361
2017-10-23T14:30:59.168Z,100358
2017-10-23T14:33:27.959Z,100371
2017-10-23T14:35:56.986Z,100371
2017-10-23T14:38:25.316Z,100379
2017-10-23T14:40:53.668Z,100378
2017-10-23T14:43:22.680Z,100379
2017-10-23T14:45:51.134Z,100388
2017-10-23T14:48:19.823Z,100397
2017-10-23T14:50:48.113Z,100385
2017-10-23T14:53:16.391Z,100397
2017-10-23T14:55:44.763Z,100397
2017-10-23T14:58:13.047Z,100409
2017-10-23T15:00:41.376Z,100411
2017-10-23T15:03:09.736Z,100415
2017-10-23T15:05:38.052Z,100421
2017-10-23T15:08:06.437Z,100412
2017-10-23T15:10:35.284Z,100425
2017-10-23T15:13:03.572Z,100415
2017-10-23T15:15:31.856Z,100418
2017-10-23T15:18:00.588Z,100420
2017-10-23T15:20:29.637Z,100421
2017-10-23T15:22:57.947Z,100424
2017-10-23T15:25:26.338Z,100429
2017-10-23T15:27:54.616Z,100438
2017-10-23T15:30:23.681Z,100436
2017-10-23T15:32:52.470Z,100436
2017-10-23T15:35:20.743Z,100441
2017-10-23T15:37:49.050Z,100444
2017-10-23T15:40:18.357Z,100450
2017-10-23T15:42:47.393Z,100453
2017-10-23T15:45:15.737Z,100452
2017-10-23T15:47:45.472Z,100454
2017-10-23T15:50:13.882Z,100457
2017-10-23T15:52:42.211Z,100464
2017-10-23T15:55:10.490Z,100468
2017-10-23T15:57:39.172Z,100475
2017-10-23T16:00:07.432Z,100476
2017-10-23T16:02:35.769Z,100475
2017-10-23T16:05:04.143Z,100474
2017-10-23T16:07:32.470Z,100473
2017-10-23T16:10:00.825Z,100479
2017-10-23T16:12:29.916Z,100482
2017-10-23T16:14:59.095Z,100492
2017-10-23T16:17:27.419Z,100495
2017-10-23T16:19:57.584Z,100497
2017-10-23T16:22:25.954Z,100495
2017-10-23T16:24:54.203Z,100496
2017-10-23T16:27:22.548Z,100502
2017-10-23T16:29:51.257Z,100501
2017-10-23T16:32:20.289Z,100501
2017-10-23T16:34:48.618Z,100504
2017-10-23T16:37:17.751Z,100508
2017-10-23T16:39:46.022Z,100508
2017-10-23T16:42:14.360Z,100511
2017-10-23T16:44:43.458Z,100517
2017-10-23T16:47:12.620Z,100515
2017-10-23T16:49:41.119Z,100520
2017-10-23T16:52:09.439Z,100525
2017-10-23T16:54:37.711Z,100525
2017-10-23T16:57:06.211Z,100519
2017-10-23T16:59:35.088Z,100521
2017-10-23T17:02:03.431Z,100528
2017-10-23T17:04:33.536Z,100531
2017-10-23T17:07:02.250Z,100542
2017-10-23T17:09:33.147Z,100532
2017-10-23T17:12:16.324Z,100537
2017-10-23T17:14:44.587Z,100532
2017-10-23T17:17:13.608Z,100542
2017-10-23T17:19:41.956Z,100546
2017-10-23T17:22:10.233Z,100552
2017-10-23T17:24:39.254Z,100546
2017-10-23T17:27:07.580Z,100563
2017-10-23T17:29:35.888Z,100564
2017-10-23T17:32:04.170Z,100560
2017-10-23T17:34:36.888Z,100575
2017-10-23T17:37:05.201Z,100576
2017-10-23T17:39:33.679Z,100568
2017-10-23T17:42:02.857Z,100580
2017-10-23T17:44:31.108Z,100579
2017-10-23T17:46:59.423Z,100579
2017-10-23T17:49:27.771Z,100587
2017-10-23T17:51:56.017Z,100588
2017-10-23T17:54:24.331Z,100588
2017-10-23T17:56:52.691Z,100590
2017-10-23T17:59:20.988Z,100591
2017-10-23T18:01:49.311Z,100600
2017-10-23T18:04:17.984Z,100595
2017-10-23T18:06:47.031Z,100605
2017-10-23T18:09:15.361Z,100602
2017-10-23T18:11:43.727Z,100608
2017-10-23T18:14:13.911Z,100612
2017-10-23T18:16:42.281Z,100610
2017-10-23T18:19:10.579Z,100620
2017-10-23T18:21:38.836Z,100619
2017-10-23T18:24:07.253Z,100625
2017-10-23T18:26:36.342Z,100623
2017-10-23T18:29:06.289Z,100622
2017-10-23T18:31:35.396Z,100636
2017-10-23T18:34:03.693Z,100632
2017-10-23T18:36:32.038Z,100633
2017-10-23T18:39:00.387Z,100635
2017-10-23T18:41:28.645Z,100636
2017-10-23T18:43:57.143Z,100634
2017-10-23T18:46:26.230Z,100646
2017-10-23T18:48:54.500Z,100641
2017-10-23T18:51:22.847Z,100653
2017-10-23T18:53:51.198Z,100653
2017-10-23T18:56:19.540Z,100660
2017-10-23T18:58:47.885Z,100651
2017-10-23T19:01:16.190Z,100650
2017-10-23T19:03:46.360Z,100655
2017-10-23T19:06:14.715Z,100657
2017-10-23T19:08:44.665Z,100661
2017-10-23T19:11:12.950Z,100672
2017-10-23T19:13:42.036Z,100660
2017-10-23T19:16:10.768Z,100667
2017-10-23T19:18:39.865Z,100676
2017-10-23T19:21:08.936Z,100675
2017-10-23T19:23:37.354Z,100682
2017-10-23T19:26:05.665Z,100683
2017-10-23T19:28:34.016Z,100683
2017-10-23T19:31:02.420Z,100688
2017-10-23T19:33:30.705Z,100680
2017-10-23T19:35:59.016Z,100686
2017-10-23T19:38:27.824Z,100685
2017-10-23T19:40:56.159Z,100689
2017-10-23T19:43:24.465Z,100687
2017-10-23T19:45:52.911Z,100693
2017-10-23T19:48:21.212Z,100699
2017-10-23T19:50:50.403Z,100701
2017-10-23T19:53:19.651Z,100701
2017-10-23T19:55:47.923Z,100702
2017-10-23T19:58:16.189Z,100708
2017-10-23T20:00:44.556Z,100711
2017-10-23T20:03:13.574Z,100714
2017-10-23T20:05:42.028Z,100712
2017-10-23T20:08:10.407Z,100715
2017-10-23T20:10:38.738Z,100725
2017-10-23T20:13:07.906Z,100725
2017-10-23T20:15:36.226Z,100729
2017-10-23T20:18:04.540Z,100732
2017-10-23T20:20:32.906Z,100730
2017-10-23T20:23:01.285Z,100726
2017-10-23T20:25:30.675Z,100735
2017-10-23T20:27:58.990Z,100737
2017-10-23T20:30:27.300Z,100738
2017-10-23T20:32:56.080Z,100736
2017-10-23T20:35:24.392Z,100740
2017-10-23T20:37:53.491Z,100746
2017-10-23T20:40:22.625Z,100748
2017-10-23T20:42:50.963Z,100745
2017-10-23T20:45:20.006Z,100745
2017-10-23T20:47:49.054Z,100748
2017-10-23T20:50:18.105Z,100742
2017-10-23T20:52:46.412Z,100741
2017-10-23T20:55:14.857Z,100746
2017-10-23T20:57:43.091Z,100743
2017-10-23T21:00:12.606Z,100751
2017-10-23T21:02:40.886Z,100748
2017-10-23T21:05:09.237Z,100755
2017-10-23T21:07:38.710Z,100750
2017-10-23T21:10:07.013Z,100758
2017-10-23T21:12:36.074Z,100763
2017-10-23T21:15:05.516Z,100759
2017-10-23T21:17:33.840Z,100758
2017-10-23T21:20:02.099Z,100769
2017-10-23T21:22:30.459Z,100769
2017-10-23T21:24:58.706Z,100776
2017-10-23T21:27:26.947Z,100783
2017-10-23T21:29:55.311Z,100785
2017-10-23T21:32:23.611Z,100783
2017-10-23T21:34:51.913Z,100788
2017-10-23T21:37:20.207Z,100791
2017-10-23T21:39:48.504Z,100789
2017-10-23T21:42:16.741Z,100791
2017-10-23T21:44:45.944Z,100789
2017-10-23T21:47:17.218Z,100793
2017-10-23T21:49:45.574Z,100801
2017-10-23T21:52:14.706Z,100805
2017-10-23T21:54:43.779Z,100795
2017-10-23T21:57:12.101Z,100798
2017-10-23T21:59:40.425Z,100797
2017-10-23T22:02:09.508Z,100790
2017-10-23T22:04:37.824Z,100793
2017-10-23T22:07:06.609Z,100791
2017-10-23T22:09:34.858Z,100796
2017-10-23T22:12:03.170Z,100795
2017-10-23T22:14:31.565Z,100799
2017-10-23T22:16:59.890Z,100810
2017-10-23T22:19:28.202Z,100816
2017-10-23T22:21:56.537Z,100815
2017-10-23T22:24:25.616Z,100819
2017-10-23T22:26:53.908Z,100824
2017-10-23T22:29:22.316Z,100825
2017-10-23T22:31:50.559Z,100821
2017-10-23T22:34:18.830Z,100819
2017-10-23T22:36:47.969Z,100822
2017-10-23T22:39:16.286Z,100821
2017-10-23T22:41:44.542Z,100822
2017-10-23T22:44:12.843Z,100830
2017-10-23T22:46:41.149Z,100837
2017-10-23T22:49:10.215Z,100825
2017-10-23T22:51:38.610Z,100830
2017-10-23T22:54:07.619Z,100829
2017-10-23T22:56:35.929Z,100826
2017-10-23T22:59:04.248Z,100836
2017-10-23T23:01:33.317Z,100835
2017-10-23T23:04:01.610Z,100843
2017-10-23T23:06:29.908Z,100846
2017-10-23T23:08:58.220Z,100852
2017-10-23T23:11:26.953Z,100856
2017-10-23T23:13:56.020Z,100850
2017-10-23T23:16:24.310Z,100854
2017-10-23T23:18:52.547Z,100853
2017-10-23T23:21:20.833Z,100851
2017-10-23T23:23:49.200Z,100854
2017-10-23T23:26:17.455Z,100868
2017-10-23T23:28:45.700Z,100858
2017-10-23T23:31:14.105Z,100866
2017-10-23T23:33:43.191Z,100858
2017-10-23T23:36:12.303Z,100859
2017-10-23T23:38:40.956Z,100872
2017-10-23T23:41:10.043Z,100868
2017-10-23T23:43:38.315Z,100871
2017-10-23T23:46:06.660Z,100875
2017-10-23T23:48:34.990Z,100877
2017-10-23T23:51:04.029Z,100874
2017-10-23T23:53:32.392Z,100890
2017-10-23T23:56:00.647Z,100884
2017-10-23T23:58:29.647Z,100886
